Time;durP1;ratioP1;P1;durP2;ratioP2;P2;SDS_P1;SDS_P2;PMS_P1;PMS_P2;Temp;Humidity;BMP_temperature;BMP_pressure;BME280_temperature;BME280_humidity;BME280_pressure;Samples;Min_cycle;Max_cycle;Signal;HPM_P1;HPM_P2
2021/05/04 00:00:37;;;;;;;7.93;5.07;;;8.80;77.30;;;;;;5099333;28;27411;-58
2021/05/04 00:03:22;;;;;;;10.15;6.60;;;8.80;76.70;;;;;;5103490;28;27508;-58
2021/05/04 00:06:06;;;;;;;10.85;6.07;;;8.80;77.00;;;;;;5103652;28;27465;-58
2021/05/04 00:08:51;;;;;;;9.13;6.00;;;8.80;76.80;;;;;;5103304;28;27478;-58
2021/05/04 00:11:35;;;;;;;9.07;5.35;;;8.80;78.40;;;;;;5103078;28;27488;-58
2021/05/04 00:14:20;;;;;;;10.05;5.72;;;8.70;77.20;;;;;;5102798;28;27484;-58
2021/05/04 00:17:05;;;;;;;6.25;4.90;;;8.60;76.80;;;;;;5100281;28;27450;-58
2021/05/04 00:19:49;;;;;;;11.77;5.22;;;8.60;76.90;;;;;;5099852;28;27445;-58
2021/05/04 00:22:34;;;;;;;9.50;6.57;;;8.60;77.10;;;;;;5099776;28;27477;-58
2021/05/04 00:25:19;;;;;;;8.65;5.43;;;8.60;77.90;;;;;;5103118;28;27418;-58
2021/05/04 00:28:04;;;;;;;10.48;4.80;;;8.60;76.90;;;;;;5086984;28;27436;-58
2021/05/04 00:30:51;;;;;;;6.43;4.95;;;8.60;77.60;;;;;;5102927;28;27461;-58
2021/05/04 00:33:36;;;;;;;9.82;5.10;;;8.50;77.50;;;;;;5103222;28;27441;-59
2021/05/04 00:36:20;;;;;;;7.60;4.72;;;8.50;78.20;;;;;;5103107;28;27441;-58
2021/05/04 00:39:05;;;;;;;7.30;4.75;;;8.50;78.20;;;;;;5103295;28;27382;-58
2021/05/04 00:41:50;;;;;;;7.38;4.55;;;8.50;78.60;;;;;;5103217;28;27426;-58
2021/05/04 00:44:34;;;;;;;11.73;4.15;;;8.50;77.60;;;;;;5102492;28;27431;-59
2021/05/04 00:47:18;;;;;;;5.70;4.13;;;8.50;77.30;;;;;;5102325;28;26936;-58
2021/05/04 00:50:04;;;;;;;5.05;3.50;;;8.50;78.30;;;;;;5099481;28;27425;-58
2021/05/04 00:52:49;;;;;;;8.13;4.00;;;8.50;79.60;;;;;;5103121;28;27515;-58
2021/05/04 00:55:33;;;;;;;6.05;4.05;;;8.40;77.70;;;;;;5102867;28;27477;-58
2021/05/04 00:58:18;;;;;;;6.93;4.55;;;8.40;78.60;;;;;;5101973;28;27454;-58
2021/05/04 01:01:03;;;;;;;8.50;4.63;;;8.40;78.70;;;;;;5098724;28;27429;-58
2021/05/04 01:03:48;;;;;;;3.85;3.45;;;8.40;78.20;;;;;;5102682;28;27933;-58
2021/05/04 01:06:32;;;;;;;6.18;3.60;;;8.40;78.40;;;;;;5087730;28;27352;-59
2021/05/04 01:09:17;;;;;;;4.85;3.75;;;8.40;77.60;;;;;;5102506;28;27398;-58
2021/05/04 01:12:01;;;;;;;4.63;3.65;;;8.40;79.10;;;;;;5102592;28;27429;-58
2021/05/04 01:14:46;;;;;;;6.25;3.78;;;8.40;78.40;;;;;;5099403;28;27308;-59
2021/05/04 01:17:30;;;;;;;8.63;3.92;;;8.40;78.10;;;;;;5102732;28;27367;-58
2021/05/04 01:20:15;;;;;;;7.50;3.75;;;8.40;78.40;;;;;;5099199;28;27320;-58
2021/05/04 01:23:00;;;;;;;5.03;3.83;;;8.40;79.00;;;;;;5099114;28;27328;-58
2021/05/04 01:25:44;;;;;;;6.05;3.58;;;8.30;77.80;;;;;;5103214;27;27382;-59
2021/05/04 01:28:29;;;;;;;4.22;3.63;;;8.30;78.20;;;;;;5102773;28;27378;-58
2021/05/04 01:31:13;;;;;;;4.63;3.92;;;8.30;78.20;;;;;;5101909;28;27416;-58
2021/05/04 01:33:58;;;;;;;8.35;4.25;;;8.30;77.80;;;;;;5106006;28;27371;-58
2021/05/04 01:36:42;;;;;;;4.63;3.95;;;8.30;78.60;;;;;;5106074;28;27413;-58
2021/05/04 01:39:47;;;;;;;8.60;4.25;;;8.30;78.60;;;;;;5105534;28;27470;-58
2021/05/04 01:42:31;;;;;;;4.95;3.78;;;8.30;78.00;;;;;;5104172;28;27571;-57
2021/05/04 01:45:16;;;;;;;4.65;3.30;;;8.20;78.60;;;;;;5105872;28;27403;-58
2021/05/04 01:48:01;;;;;;;4.40;3.75;;;8.30;78.20;;;;;;5105400;28;27419;-58
2021/05/04 01:50:45;;;;;;;6.10;3.72;;;8.20;79.60;;;;;;5105551;28;27432;-58
2021/05/04 01:53:30;;;;;;;7.00;3.70;;;8.20;79.40;;;;;;5105514;28;27456;-58
2021/05/04 01:56:14;;;;;;;5.25;4.10;;;8.20;79.10;;;;;;5105683;28;26853;-58
2021/05/04 01:59:02;;;;;;;5.68;3.80;;;8.20;77.80;;;;;;5105575;28;27865;-58
2021/05/04 02:01:47;;;;;;;4.75;3.88;;;8.20;78.70;;;;;;5105750;28;27461;-58
2021/05/04 02:04:32;;;;;;;5.60;4.22;;;8.20;78.30;;;;;;5105621;28;27469;-58
2021/05/04 02:07:17;;;;;;;4.63;3.92;;;8.20;79.20;;;;;;5102101;28;27364;-58
2021/05/04 02:10:01;;;;;;;7.35;3.72;;;8.20;78.60;;;;;;5102914;28;27429;-58
2021/05/04 02:12:45;;;;;;;5.55;3.92;;;8.20;79.50;;;;;;5105263;28;27537;-57
2021/05/04 02:15:30;;;;;;;4.35;3.95;;;8.20;78.60;;;;;;5105386;28;27407;-58
2021/05/04 02:18:14;;;;;;;4.38;3.45;;;8.20;78.80;;;;;;5105060;28;27412;-58
2021/05/04 02:20:59;;;;;;;5.03;4.03;;;8.10;78.90;;;;;;5101886;28;27979;-58
2021/05/04 02:23:44;;;;;;;4.13;3.55;;;8.10;79.30;;;;;;5105190;28;27450;-58
2021/05/04 02:26:28;;;;;;;4.43;3.20;;;8.10;78.80;;;;;;5104524;28;27572;-58
2021/05/04 02:29:13;;;;;;;5.07;4.10;;;8.10;79.70;;;;;;5104883;28;27453;-58
2021/05/04 02:31:57;;;;;;;3.88;3.47;;;8.00;78.50;;;;;;5104318;28;28047;-58
2021/05/04 02:34:42;;;;;;;4.60;3.28;;;8.00;78.90;;;;;;5086562;28;27404;-58
2021/05/04 02:37:27;;;;;;;4.88;3.88;;;8.00;79.40;;;;;;5103734;27;27395;-58
2021/05/04 02:40:12;;;;;;;3.85;3.25;;;8.00;77.80;;;;;;5104921;28;27320;-58
2021/05/04 02:43:00;;;;;;;4.82;3.80;;;8.00;78.30;;;;;;5104901;28;27337;-57
2021/05/04 02:45:44;;;;;;;5.72;3.60;;;8.00;78.00;;;;;;5104711;28;27434;-57
2021/05/04 02:48:33;;;;;;;3.67;3.30;;;8.00;78.40;;;;;;5103851;28;27446;-58
2021/05/04 02:51:18;;;;;;;5.28;3.63;;;8.00;78.20;;;;;;5104637;28;27277;-58
2021/05/04 02:54:03;;;;;;;6.07;3.92;;;8.10;78.90;;;;;;5104542;28;27477;-58
2021/05/04 02:56:47;;;;;;;4.30;3.50;;;8.10;78.60;;;;;;5104432;28;27455;-58
2021/05/04 02:59:32;;;;;;;4.50;3.75;;;8.20;79.00;;;;;;5104421;28;27461;-58
2021/05/04 03:02:16;;;;;;;4.55;3.70;;;8.20;78.90;;;;;;5103939;28;27465;-58
2021/05/04 03:05:00;;;;;;;5.95;3.85;;;8.30;78.20;;;;;;5104183;28;27453;-58
2021/05/04 03:07:45;;;;;;;9.13;3.95;;;8.30;78.60;;;;;;5104465;28;27466;-58
2021/05/04 03:10:30;;;;;;;4.15;3.13;;;8.30;79.10;;;;;;5104306;28;27462;-58
2021/05/04 03:13:14;;;;;;;4.82;3.17;;;8.40;78.30;;;;;;5104129;28;27460;-58
2021/05/04 03:15:59;;;;;;;4.18;3.35;;;8.40;78.50;;;;;;5099974;28;27455;-58
2021/05/04 03:18:44;;;;;;;7.43;3.40;;;8.40;78.00;;;;;;5100237;28;27480;-58
2021/05/04 03:21:29;;;;;;;4.88;3.60;;;8.50;78.30;;;;;;5104268;28;27470;-58
2021/05/04 03:24:13;;;;;;;4.57;3.30;;;8.50;78.00;;;;;;5104231;28;27446;-58
2021/05/04 03:26:58;;;;;;;3.72;3.08;;;8.50;78.30;;;;;;5103398;28;27989;-57
2021/05/04 03:29:43;;;;;;;5.10;3.42;;;8.50;78.30;;;;;;5102879;28;27568;-58
2021/05/04 03:32:28;;;;;;;4.03;3.33;;;8.50;78.90;;;;;;5103841;28;27468;-58
2021/05/04 03:35:12;;;;;;;3.70;3.38;;;8.50;79.20;;;;;;5099708;28;27351;-58
2021/05/04 03:37:57;;;;;;;3.40;2.65;;;8.50;79.30;;;;;;5103814;28;27630;-58
2021/05/04 03:40:42;;;;;;;5.20;2.92;;;8.50;79.20;;;;;;5104145;28;27382;-58
2021/05/04 03:43:26;;;;;;;4.97;3.30;;;8.50;79.30;;;;;;5103859;28;27389;-58
2021/05/04 03:46:11;;;;;;;4.00;3.05;;;8.50;79.50;;;;;;5103129;28;27417;-58
2021/05/04 03:48:55;;;;;;;3.40;2.90;;;8.40;79.30;;;;;;5102881;27;27868;-57
2021/05/04 03:51:40;;;;;;;3.97;3.10;;;8.40;79.80;;;;;;5099351;28;27348;-58
2021/05/04 03:54:24;;;;;;;5.07;3.25;;;8.40;79.60;;;;;;5103603;28;26985;-57
2021/05/04 03:57:09;;;;;;;3.35;2.88;;;8.40;79.70;;;;;;5103417;28;27340;-58
2021/05/04 03:59:53;;;;;;;4.15;3.17;;;8.40;79.90;;;;;;5103688;28;27393;-57
2021/05/04 04:02:38;;;;;;;4.35;2.75;;;8.40;79.90;;;;;;5103673;28;27345;-57
2021/05/04 04:05:23;;;;;;;4.07;2.72;;;8.40;79.20;;;;;;5103496;28;27356;-58
2021/05/04 04:08:08;;;;;;;4.03;2.85;;;8.30;80.10;;;;;;5103680;28;27367;-58
2021/05/04 04:10:52;;;;;;;2.95;2.63;;;8.30;79.20;;;;;;5103184;28;27847;-58
2021/05/04 04:13:37;;;;;;;3.55;2.97;;;8.30;79.40;;;;;;5103592;28;27598;-58
2021/05/04 04:16:21;;;;;;;3.20;2.83;;;8.30;78.60;;;;;;5103539;28;27383;-58
2021/05/04 04:19:08;;;;;;;5.78;3.25;;;8.30;80.30;;;;;;5103393;28;27442;-58
2021/05/04 04:21:52;;;;;;;2.72;2.53;;;8.30;80.00;;;;;;5103353;28;27402;-58
2021/05/04 04:24:37;;;;;;;2.90;2.60;;;8.30;80.00;;;;;;5100550;28;27516;-58
2021/05/04 04:27:24;;;;;;;5.97;3.20;;;8.20;80.10;;;;;;5102867;28;27454;-58
2021/05/04 04:30:13;;;;;;;4.22;3.00;;;8.30;80.00;;;;;;5103334;28;27328;-58
2021/05/04 04:32:59;;;;;;;3.13;2.78;;;8.30;80.50;;;;;;5099587;28;27446;-58
2021/05/04 04:35:45;;;;;;;3.65;2.97;;;8.30;80.80;;;;;;5103255;28;27445;-58
2021/05/04 04:38:29;;;;;;;3.03;2.72;;;8.30;80.80;;;;;;5103349;28;27391;-57
2021/05/04 04:41:14;;;;;;;2.60;2.30;;;8.30;80.60;;;;;;5102009;28;27489;-58
2021/05/04 04:43:59;;;;;;;3.17;2.83;;;8.30;80.70;;;;;;5103122;28;27413;-58
2021/05/04 04:46:44;;;;;;;3.25;2.95;;;8.30;80.80;;;;;;5099032;28;27436;-58
2021/05/04 04:49:29;;;;;;;3.53;3.00;;;8.40;81.00;;;;;;5099699;28;27482;-58
2021/05/04 04:52:14;;;;;;;3.83;2.97;;;8.40;79.70;;;;;;5102923;28;27482;-58
2021/05/04 04:54:59;;;;;;;4.95;3.15;;;8.40;80.90;;;;;;5102777;28;27464;-57
2021/05/04 04:57:43;;;;;;;3.20;2.88;;;8.40;79.60;;;;;;5102799;28;27476;-58
2021/05/04 05:00:28;;;;;;;6.97;3.17;;;8.40;80.40;;;;;;5104994;27;27461;-58
2021/05/04 05:03:12;;;;;;;4.97;3.05;;;8.50;79.70;;;;;;5105847;28;27333;-58
2021/05/04 05:05:57;;;;;;;3.83;3.08;;;8.50;80.20;;;;;;5106116;28;27387;-58
2021/05/04 05:08:41;;;;;;;6.40;2.60;;;8.50;79.90;;;;;;5106360;28;27344;-58
2021/05/04 05:11:26;;;;;;;4.85;3.00;;;8.50;79.70;;;;;;5105908;28;27347;-57
2021/05/04 05:14:10;;;;;;;3.67;3.03;;;8.60;80.00;;;;;;5106402;28;27321;-58
2021/05/04 05:16:55;;;;;;;5.57;2.80;;;8.60;80.00;;;;;;5102700;28;27806;-58
2021/05/04 05:19:39;;;;;;;2.45;2.22;;;8.60;76.20;;;;;;5105175;28;27360;-58
2021/05/04 05:22:25;;;;;;;3.05;2.70;;;8.60;75.00;;;;;;5102080;28;27332;-58
2021/05/04 05:25:10;;;;;;;5.22;2.80;;;8.60;73.40;;;;;;5088056;28;27414;-58
2021/05/04 05:27:55;;;;;;;6.32;3.03;;;8.60;73.00;;;;;;5105008;28;27398;-58
2021/05/04 05:30:41;;;;;;;4.72;2.75;;;8.70;73.30;;;;;;5090800;28;27428;-57
2021/05/04 05:33:26;;;;;;;3.53;2.60;;;8.70;72.90;;;;;;5090434;28;27407;-58
2021/05/04 05:36:11;;;;;;;4.03;3.00;;;8.70;72.80;;;;;;5105069;28;27393;-58
2021/05/04 05:38:55;;;;;;;4.07;2.53;;;8.70;72.80;;;;;;5105707;28;27340;-57
2021/05/04 05:41:40;;;;;;;5.78;2.92;;;8.80;72.80;;;;;;5105885;28;27434;-58
2021/05/04 05:44:24;;;;;;;3.72;2.90;;;8.90;72.70;;;;;;5105303;28;27579;-57
2021/05/04 05:47:09;;;;;;;3.42;2.75;;;8.90;72.40;;;;;;5101800;28;27310;-58
2021/05/04 05:49:53;;;;;;;5.75;3.92;;;8.90;73.00;;;;;;5105801;28;27954;-58
2021/05/04 05:52:38;;;;;;;6.28;4.13;;;9.00;72.60;;;;;;5086970;28;27444;-58
2021/05/04 05:55:22;;;;;;;4.95;3.38;;;9.10;72.30;;;;;;5105651;28;27478;-58
2021/05/04 05:58:07;;;;;;;7.75;3.33;;;9.10;72.20;;;;;;5105401;28;27450;-58
2021/05/04 06:00:54;;;;;;;5.20;3.15;;;9.20;71.70;;;;;;5105644;28;27546;-58
2021/05/04 06:03:38;;;;;;;3.47;2.42;;;9.30;72.30;;;;;;5105312;28;27395;-58
2021/05/04 06:06:23;;;;;;;4.53;2.60;;;9.30;72.30;;;;;;5105369;28;27469;-58
2021/05/04 06:09:08;;;;;;;4.25;2.42;;;9.40;71.90;;;;;;5104558;28;27460;-58
2021/05/04 06:11:52;;;;;;;8.63;2.78;;;9.40;72.30;;;;;;5103941;27;27410;-57
2021/05/04 06:14:37;;;;;;;3.08;2.60;;;9.50;71.40;;;;;;5105020;28;27515;-57
2021/05/04 06:17:22;;;;;;;5.13;3.40;;;9.60;71.40;;;;;;5105390;28;27489;-57
2021/05/04 06:20:07;;;;;;;4.90;3.97;;;9.70;71.30;;;;;;5104368;28;27491;-57
2021/05/04 06:22:51;;;;;;;3.92;2.83;;;9.80;71.40;;;;;;5104925;28;28045;-58
2021/05/04 06:25:36;;;;;;;4.38;3.20;;;9.90;70.90;;;;;;5089794;28;27440;-58
2021/05/04 06:28:21;;;;;;;4.20;2.78;;;10.00;70.40;;;;;;5105214;28;27528;-58
2021/05/04 06:31:06;;;;;;;2.85;2.22;;;10.10;70.00;;;;;;5104742;28;27478;-58
2021/05/04 06:33:51;;;;;;;4.65;2.95;;;10.20;69.60;;;;;;5105394;28;27900;-58
2021/05/04 06:36:35;;;;;;;3.85;3.25;;;10.30;69.90;;;;;;5105719;28;27497;-58
2021/05/04 06:39:20;;;;;;;7.07;3.50;;;10.50;70.10;;;;;;5105627;28;27481;-58
2021/05/04 06:42:05;;;;;;;3.78;2.90;;;10.70;70.80;;;;;;5105984;28;26894;-58
2021/05/04 06:44:49;;;;;;;5.05;2.65;;;10.80;70.50;;;;;;5105906;28;27437;-58
2021/05/04 06:47:34;;;;;;;3.22;2.50;;;11.00;70.10;;;;;;5105120;28;27432;-58
2021/05/04 06:50:19;;;;;;;5.70;3.03;;;11.10;69.40;;;;;;5105883;28;27403;-58
2021/05/04 06:53:03;;;;;;;3.60;2.90;;;11.30;69.70;;;;;;5105874;28;27438;-58
2021/05/04 06:55:48;;;;;;;3.85;2.67;;;11.40;69.20;;;;;;5105520;28;27451;-59
2021/05/04 06:58:33;;;;;;;3.05;2.75;;;11.50;68.50;;;;;;5105704;28;27456;-58
2021/05/04 07:01:17;;;;;;;2.60;2.40;;;11.50;67.90;;;;;;5105423;28;27312;-58
2021/05/04 07:04:02;;;;;;;4.88;2.42;;;11.50;68.50;;;;;;5105618;28;27347;-58
2021/05/04 07:06:46;;;;;;;6.57;3.28;;;11.60;67.50;;;;;;5104817;28;27396;-58
2021/05/04 07:09:31;;;;;;;2.50;2.28;;;11.70;66.80;;;;;;5105380;28;27375;-58
2021/05/04 07:12:15;;;;;;;3.30;2.35;;;11.90;67.20;;;;;;5105205;28;27320;-58
2021/05/04 07:15:00;;;;;;;4.20;2.20;;;12.10;67.40;;;;;;5105470;28;27332;-58
2021/05/04 07:17:45;;;;;;;5.40;2.10;;;12.50;66.80;;;;;;5105216;28;27383;-58
2021/05/04 07:20:29;;;;;;;4.47;2.40;;;12.90;65.60;;;;;;5105108;28;27390;-58
2021/05/04 07:23:14;;;;;;;5.03;2.15;;;13.20;65.10;;;;;;5105237;28;27320;-58
2021/05/04 07:26:00;;;;;;;2.13;1.70;;;13.50;63.80;;;;;;5104716;28;27372;-58
2021/05/04 07:28:45;;;;;;;3.60;1.88;;;13.90;62.70;;;;;;5105017;28;27378;-58
2021/05/04 07:31:30;;;;;;;3.95;2.13;;;14.50;61.60;;;;;;5105051;28;27427;-58
2021/05/04 07:34:15;;;;;;;3.15;1.75;;;15.10;60.70;;;;;;5104516;28;27382;-58
2021/05/04 07:36:59;;;;;;;7.32;1.77;;;15.70;59.40;;;;;;5104903;28;27371;-59
2021/05/04 07:39:44;;;;;;;6.20;1.70;;;16.20;58.50;;;;;;5104763;28;27386;-59
2021/05/04 07:42:29;;;;;;;3.42;1.95;;;16.70;57.10;;;;;;5100765;28;27475;-58
2021/05/04 07:45:14;;;;;;;6.38;1.92;;;16.80;56.80;;;;;;5105030;28;27391;-59
2021/05/04 07:48:00;;;;;;;3.30;1.58;;;16.80;56.30;;;;;;5104997;28;27320;-59
2021/05/04 07:50:45;;;;;;;6.30;1.95;;;16.80;56.30;;;;;;5104776;28;27391;-59
2021/05/04 07:53:31;;;;;;;1.95;1.75;;;17.20;55.50;;;;;;5104193;28;27543;-59
2021/05/04 07:56:15;;;;;;;2.35;1.80;;;17.70;54.50;;;;;;5104642;28;27320;-60
2021/05/04 07:59:00;;;;;;;7.13;1.50;;;18.20;53.60;;;;;;5104837;28;27328;-60
2021/05/04 08:01:44;;;;;;;4.88;1.50;;;18.80;52.40;;;;;;5103358;28;27340;-59
2021/05/04 08:04:29;;;;;;;8.35;1.70;;;19.40;51.70;;;;;;5103779;28;27410;-59
2021/05/04 08:07:14;;;;;;;4.63;1.38;;;19.90;50.20;;;;;;5100617;28;27345;-59
2021/05/04 08:09:58;;;;;;;5.03;1.42;;;20.30;48.90;;;;;;5103588;28;27394;-59
2021/05/04 08:12:43;;;;;;;4.20;1.73;;;20.40;48.10;;;;;;5101078;28;27384;-60
2021/05/04 08:15:28;;;;;;;6.72;1.58;;;20.60;48.40;;;;;;5104423;28;27407;-60
2021/05/04 08:18:15;;;;;;;4.20;2.30;;;20.60;47.90;;;;;;5104641;28;27520;-60
2021/05/04 08:20:59;;;;;;;4.10;1.60;;;20.40;48.30;;;;;;5103577;28;27371;-60
2021/05/04 08:23:45;;;;;;;3.80;1.80;;;20.10;48.60;;;;;;5104241;28;27973;-60
2021/05/04 08:26:30;;;;;;;2.72;1.52;;;19.70;49.20;;;;;;5103721;28;27562;-60
2021/05/04 08:29:14;;;;;;;5.80;1.80;;;19.30;48.90;;;;;;5103643;28;27391;-59
2021/05/04 08:32:02;;;;;;;4.35;1.38;;;19.00;50.00;;;;;;5103878;28;27337;-60
2021/05/04 08:34:47;;;;;;;4.95;1.63;;;18.80;50.50;;;;;;5105392;27;27328;-60
2021/05/04 08:37:31;;;;;;;3.55;1.42;;;18.60;50.50;;;;;;5107828;28;27477;-60
2021/05/04 08:40:15;;;;;;;2.15;1.70;;;18.50;51.20;;;;;;5108022;28;27369;-60
2021/05/04 08:43:00;;;;;;;2.50;1.42;;;18.40;51.50;;;;;;5107708;28;27425;-60
2021/05/04 08:45:45;;;;;;;4.88;2.20;;;18.30;51.50;;;;;;5104302;28;27445;-60
2021/05/04 08:48:30;;;;;;;5.53;2.10;;;18.10;51.20;;;;;;5092824;28;27340;-60
2021/05/04 08:51:15;;;;;;;4.00;1.60;;;17.90;50.40;;;;;;5107701;28;27438;-60
2021/05/04 08:54:00;;;;;;;3.47;1.77;;;17.90;51.70;;;;;;5107877;28;27412;-60
2021/05/04 08:56:45;;;;;;;3.50;1.52;;;17.80;51.80;;;;;;5106960;28;27398;-60
2021/05/04 08:59:30;;;;;;;3.70;1.95;;;17.70;51.60;;;;;;5107636;28;27380;-60
2021/05/04 09:02:15;;;;;;;5.78;1.60;;;17.80;51.30;;;;;;5107428;28;26956;-60
2021/05/04 09:05:13;;;;;;;4.90;2.28;;;18.10;51.80;;;;;;5089042;28;26881;-60
2021/05/04 09:07:58;;;;;;;1.70;1.60;;;18.20;51.40;;;;;;5106549;28;27446;-60
2021/05/04 09:10:50;;;;;;;3.15;1.67;;;18.20;51.40;;;;;;5107378;28;27509;-60
2021/05/04 09:13:48;;;;;;;2.50;1.50;;;18.10;51.30;;;;;;5106920;28;27345;-60
2021/05/04 09:16:50;;;;;;;3.30;1.90;;;18.00;51.60;;;;;;5107291;28;27424;-60
2021/05/04 09:19:40;;;;;;;2.63;1.50;;;17.90;51.50;;;;;;5106729;28;27964;-60
2021/05/04 09:22:36;;;;;;;6.60;2.95;;;17.80;51.10;;;;;;5105780;28;27458;-60
2021/05/04 09:25:33;;;;;;;8.80;1.98;;;17.70;51.40;;;;;;5107417;28;27484;-60
2021/05/04 09:28:18;;;;;;;3.63;1.65;;;17.70;51.90;;;;;;5107105;28;27458;-60
2021/05/04 09:31:02;;;;;;;3.22;1.83;;;17.70;52.20;;;;;;5107023;28;27418;-59
2021/05/04 09:33:47;;;;;;;4.60;1.70;;;17.60;52.30;;;;;;5106857;28;27605;-59
2021/05/04 09:36:46;;;;;;;3.20;1.75;;;17.60;51.70;;;;;;5107232;28;27414;-59
2021/05/04 09:39:32;;;;;;;6.85;1.60;;;17.60;51.70;;;;;;5103048;28;27412;-58
2021/05/04 09:42:17;;;;;;;2.92;1.40;;;17.60;51.50;;;;;;5106991;28;27390;-59
2021/05/04 09:45:01;;;;;;;4.35;1.80;;;17.50;51.70;;;;;;5106964;28;27371;-59
2021/05/04 09:47:46;;;;;;;5.30;1.98;;;17.50;52.20;;;;;;5105610;28;27337;-59
2021/05/04 09:51:05;;;;;;;6.05;1.77;;;17.50;53.00;;;;;;5106138;28;27364;-59
2021/05/04 09:56:37;;;;;;;16.13;2.08;;;17.40;51.30;;;;;;5106709;28;27703;-59
2021/05/04 09:59:23;;;;;;;7.95;2.15;;;17.40;51.60;;;;;;5106521;28;27411;-59
2021/05/04 10:02:07;;;;;;;11.38;2.00;;;17.30;49.10;;;;;;5106725;28;27517;-59
2021/05/04 10:04:52;;;;;;;4.93;1.85;;;17.20;50.50;;;;;;5091293;28;27427;-59
2021/05/04 10:07:37;;;;;;;5.53;1.75;;;17.10;51.10;;;;;;5106276;28;27481;-60
2021/05/04 10:10:22;;;;;;;5.88;1.90;;;17.10;51.10;;;;;;5106626;28;27509;-60
2021/05/04 10:13:08;;;;;;;6.85;2.05;;;17.10;51.80;;;;;;5105812;28;27482;-59
2021/05/04 10:15:53;;;;;;;19.42;4.43;;;17.10;52.30;;;;;;5105736;28;27939;-60
2021/05/04 10:18:37;;;;;;;14.90;2.33;;;17.10;50.30;;;;;;5105418;28;27649;-60
2021/05/04 10:21:22;;;;;;;6.45;2.10;;;17.00;50.10;;;;;;5106158;28;27479;-60
2021/05/04 10:24:07;;;;;;;7.95;1.95;;;17.00;51.50;;;;;;5091168;28;27384;-60
2021/05/04 10:26:52;;;;;;;2.65;1.73;;;17.10;52.00;;;;;;5105502;28;27386;-59
2021/05/04 10:29:37;;;;;;;3.65;1.85;;;17.10;53.20;;;;;;5105451;28;27491;-60
2021/05/04 10:32:47;;;;;;;9.38;2.53;;;17.20;53.60;;;;;;5090667;28;27516;-60
2021/05/04 10:35:34;;;;;;;2.38;2.00;;;17.20;53.80;;;;;;5105803;28;27378;-59
2021/05/04 10:38:18;;;;;;;10.73;2.63;;;17.30;52.80;;;;;;5102545;28;27431;-61
2021/05/04 10:41:08;;;;;;;2.95;1.90;;;17.40;52.50;;;;;;5105316;28;27381;-60
2021/05/04 10:44:03;;;;;;;3.20;1.75;;;17.50;53.50;;;;;;5106126;28;27472;-59
2021/05/04 10:46:48;;;;;;;3.53;1.60;;;17.60;52.00;;;;;;5105564;28;27441;-59
2021/05/04 10:50:03;;;;;;;4.22;2.03;;;17.60;52.60;;;;;;5105902;28;27978;-60
2021/05/04 10:52:51;;;;;;;7.22;1.73;;;17.70;52.20;;;;;;5101850;27;27529;-60
2021/05/04 10:55:54;;;;;;;5.40;2.17;;;17.70;52.40;;;;;;5105935;28;27383;-60
2021/05/04 10:58:47;;;;;;;2.35;1.52;;;17.80;51.80;;;;;;5105215;27;26908;-60
2021/05/04 11:01:32;;;;;;;11.77;2.10;;;17.80;52.50;;;;;;5105667;28;27541;-59
2021/05/04 11:04:20;;;;;;;4.90;1.75;;;17.80;52.40;;;;;;5104674;28;27435;-59
2021/05/04 11:07:05;;;;;;;6.80;1.70;;;17.80;51.60;;;;;;5076125;28;27421;-60
2021/05/04 11:10:10;;;;;;;2.30;1.73;;;17.70;52.10;;;;;;5104638;28;27398;-59
2021/05/04 11:12:55;;;;;;;5.53;1.90;;;17.70;51.10;;;;;;5105521;28;27892;-60
2021/05/04 11:15:39;;;;;;;2.95;1.77;;;17.70;50.50;;;;;;5102068;28;27331;-60
2021/05/04 11:19:02;;;;;;;6.10;2.10;;;17.80;51.60;;;;;;5104522;28;27399;-60
2021/05/04 11:21:51;;;;;;;3.83;2.10;;;17.90;52.00;;;;;;5105183;28;27421;-60
2021/05/04 11:24:40;;;;;;;2.95;1.60;;;18.00;52.00;;;;;;5104967;28;27391;-60
2021/05/04 11:27:27;;;;;;;4.18;1.90;;;17.90;51.30;;;;;;5104146;28;27454;-60
2021/05/04 11:30:11;;;;;;;6.93;1.85;;;18.00;51.50;;;;;;5104952;28;27424;-60
2021/05/04 11:32:56;;;;;;;5.25;1.80;;;18.00;51.00;;;;;;5089974;28;27468;-60
2021/05/04 11:35:41;;;;;;;4.43;1.70;;;18.10;50.10;;;;;;5104199;28;27409;-60
2021/05/04 11:38:26;;;;;;;5.15;1.70;;;18.30;50.60;;;;;;5104046;28;27459;-60
2021/05/04 11:41:11;;;;;;;6.13;1.67;;;18.60;51.10;;;;;;5104487;28;27422;-60
2021/05/04 11:43:56;;;;;;;3.42;1.40;;;18.80;50.60;;;;;;5103909;28;27466;-60
2021/05/04 11:46:40;;;;;;;13.55;5.75;;;19.10;50.30;;;;;;5104947;28;27942;-61
2021/05/04 11:49:29;;;;;;;4.45;2.28;;;19.20;64.30;;;;;;5104950;28;27525;-61
2021/05/04 11:52:16;;;;;;;18.25;6.00;;;19.20;55.10;;;;;;5104702;28;27383;-60
2021/05/04 11:55:09;;;;;;;13.45;3.00;;;19.30;57.70;;;;;;5104987;28;27430;-61
2021/05/04 11:57:58;;;;;;;27.48;4.25;;;19.30;54.30;;;;;;5104586;28;27414;-60
2021/05/04 12:00:43;;;;;;;11.02;2.50;;;19.20;54.00;;;;;;5101214;28;27401;-60
2021/05/04 12:03:27;;;;;;;8.18;2.17;;;19.20;52.90;;;;;;5104457;28;27357;-60
2021/05/04 12:06:12;;;;;;;6.38;1.95;;;19.20;51.10;;;;;;5104235;28;27379;-60
2021/05/04 12:08:57;;;;;;;7.20;1.52;;;19.30;50.10;;;;;;5103893;27;27414;-60
2021/05/04 12:11:42;;;;;;;2.95;2.05;;;19.30;50.10;;;;;;5086070;28;27467;-60
2021/05/04 12:14:26;;;;;;;6.47;1.75;;;19.40;51.20;;;;;;5104494;28;27338;-59
2021/05/04 12:17:11;;;;;;;2.45;1.70;;;19.40;50.70;;;;;;5104703;28;27359;-60
2021/05/04 12:20:17;;;;;;;6.85;1.30;;;19.40;50.60;;;;;;5103860;28;27920;-60
2021/05/04 12:23:04;;;;;;;4.28;2.00;;;19.50;49.50;;;;;;5104275;28;27387;-60
2021/05/04 12:25:57;;;;;;;2.05;1.40;;;19.50;49.20;;;;;;5104376;28;27457;-60
2021/05/04 12:28:53;;;;;;;13.70;1.85;;;19.60;50.20;;;;;;5104466;28;27340;-60
2021/05/04 12:31:38;;;;;;;2.08;1.30;;;19.60;48.80;;;;;;5103929;28;27371;-60
2021/05/04 12:34:23;;;;;;;3.90;1.17;;;19.70;49.30;;;;;;5104186;28;27344;-61
2021/05/04 12:37:14;;;;;;;6.25;1.80;;;19.70;47.00;;;;;;5104314;28;27355;-60
2021/05/04 12:40:16;;;;;;;5.78;1.55;;;19.60;46.30;;;;;;5103977;28;27328;-60
2021/05/04 12:43:20;;;;;;;1.58;1.10;;;19.70;46.20;;;;;;5103773;28;27439;-60
2021/05/04 12:46:09;;;;;;;4.90;1.58;;;19.80;46.80;;;;;;5104027;28;27380;-60
2021/05/04 12:48:54;;;;;;;3.10;1.45;;;19.90;47.70;;;;;;5104434;28;27462;-60
2021/05/04 12:51:43;;;;;;;1.73;1.45;;;20.00;48.30;;;;;;5104090;28;27398;-60
2021/05/04 12:54:28;;;;;;;3.83;1.52;;;20.10;47.90;;;;;;5104024;28;27359;-60
2021/05/04 12:57:29;;;;;;;4.57;1.17;;;20.00;46.90;;;;;;5104100;28;27325;-60
2021/05/04 13:00:20;;;;;;;2.40;1.92;;;20.00;47.20;;;;;;5103831;28;27374;-59
2021/05/04 13:03:06;;;;;;;6.05;1.67;;;20.00;47.40;;;;;;5103795;28;27447;-60
2021/05/04 13:06:11;;;;;;;2.20;1.30;;;19.90;47.80;;;;;;5103111;28;27468;-60
2021/05/04 13:09:08;;;;;;;3.22;1.30;;;19.90;47.10;;;;;;5103717;28;27468;-60
2021/05/04 13:18:40;;;;;;;3.08;1.63;;;19.90;49.70;;;;;;5102848;28;27370;-60
2021/05/04 13:30:01;;;;;;;2.90;1.20;;;20.20;49.40;;;;;;5095849;27;27503;-61
2021/05/04 13:32:50;;;;;;;6.32;1.65;;;20.30;49.10;;;;;;5106317;28;27593;-61
2021/05/04 13:35:45;;;;;;;6.72;2.58;;;20.30;48.40;;;;;;5106174;28;27361;-60
2021/05/04 13:47:30;;;;;;;5.55;1.55;;;20.50;49.30;;;;;;5106708;28;27457;-61
2021/05/04 13:47:56;;;;;;;2.45;1.50;;;20.50;49.10;;;;;;5095178;28;27381;-60
2021/05/04 13:50:41;;;;;;;9.68;1.63;;;20.50;47.10;;;;;;5106395;28;27324;-61
2021/05/04 13:53:26;;;;;;;2.75;1.20;;;20.40;46.90;;;;;;5102752;28;27321;-61
2021/05/04 13:56:11;;;;;;;2.55;1.40;;;20.40;47.30;;;;;;5106482;28;27378;-61
2021/05/04 13:58:55;;;;;;;2.75;1.50;;;20.30;47.80;;;;;;5106518;28;27328;-61
2021/05/04 14:01:48;;;;;;;3.85;1.30;;;20.30;47.80;;;;;;5103433;28;27350;-60
2021/05/04 14:28:17;;;;;;;3.80;1.48;;;19.90;49.30;;;;;;5103697;28;27410;-61
2021/05/04 14:31:02;;;;;;;6.03;1.92;;;19.90;49.60;;;;;;5106055;28;27394;-61
2021/05/04 14:33:47;;;;;;;2.63;1.63;;;19.90;48.90;;;;;;5104706;27;27351;-60
2021/05/04 14:45:43;;;;;;;4.68;1.90;;;19.50;51.30;;;;;;5105997;28;27444;-60
2021/05/04 15:00:45;;;;;;;7.07;2.10;;;18.90;52.60;;;;;;5105717;28;27319;-60
2021/05/04 15:03:30;;;;;;;4.30;1.70;;;18.80;54.00;;;;;;5105633;28;27418;-61
2021/05/04 15:06:15;;;;;;;3.17;1.50;;;18.70;53.90;;;;;;5105308;28;27535;-60
2021/05/04 15:09:00;;;;;;;4.20;2.58;;;18.60;54.20;;;;;;5105601;28;27447;-60
2021/05/04 15:11:46;;;;;;;11.40;3.15;;;18.50;54.60;;;;;;5105025;28;27453;-61
2021/05/04 15:17:29;;;;;;;3.92;2.65;;;18.30;54.60;;;;;;5101873;28;27425;-60
2021/05/04 15:23:17;;;;;;;5.25;2.55;;;18.20;55.70;;;;;;5101669;28;27403;-60
2021/05/04 15:26:03;;;;;;;7.05;2.85;;;18.10;55.80;;;;;;5104265;28;27434;-59
2021/05/04 15:28:48;;;;;;;4.57;2.60;;;18.00;55.90;;;;;;5105281;28;27457;-60
2021/05/04 15:31:46;;;;;;;2.97;2.35;;;18.00;56.30;;;;;;5104098;28;27564;-60
2021/05/04 15:34:34;;;;;;;4.53;2.60;;;17.90;56.10;;;;;;5104910;28;27398;-60
2021/05/04 15:37:19;;;;;;;3.38;2.33;;;17.90;56.50;;;;;;5105202;28;27373;-60
2021/05/04 15:40:05;;;;;;;3.45;2.22;;;17.80;57.00;;;;;;5104042;28;27491;-60
2021/05/04 15:42:49;;;;;;;4.15;1.92;;;17.80;57.70;;;;;;5104892;28;27465;-60
2021/05/04 15:45:52;;;;;;;2.65;2.30;;;17.70;58.10;;;;;;5099417;28;27439;-60